createdAt,value
2023-04-07T00:02:13.453Z,2.28
2023-04-07T00:04:41.595Z,3.10
2023-04-07T00:07:09.587Z,2.38
2023-04-07T00:09:37.561Z,2.03
2023-04-07T00:12:05.290Z,2.50
2023-04-07T00:14:32.795Z,3.03
2023-04-07T00:17:00.264Z,0.80
2023-04-07T00:19:27.788Z,2.17
2023-04-07T00:21:55.220Z,1.67
2023-04-07T00:24:33.460Z,4.90
2023-04-07T00:27:01.986Z,2.28
2023-04-07T00:29:29.501Z,3.05
2023-04-07T00:31:57.072Z,1.52
2023-04-07T00:34:24.695Z,3.40
2023-04-07T00:36:55.163Z,2.30
2023-04-07T00:39:23.225Z,2.20
2023-04-07T00:41:51.610Z,3.20
2023-04-07T00:44:19.180Z,3.65
2023-04-07T00:46:48.789Z,2.40
2023-04-07T00:49:20.145Z,2.92
2023-04-07T00:51:47.774Z,2.05
2023-04-07T00:54:15.773Z,1.40
2023-04-07T00:56:43.854Z,2.35
2023-04-07T00:59:11.605Z,3.45
2023-04-07T01:01:46.826Z,2.60
2023-04-07T01:04:28.824Z,2.40
2023-04-07T01:07:04.542Z,3.53
2023-04-07T01:10:01.024Z,1.88
2023-04-07T01:12:38.012Z,6.75
2023-04-07T01:17:46.642Z,3.97
2023-04-07T01:20:18.185Z,1.40
2023-04-07T01:22:57.806Z,3.50
2023-04-07T01:25:54.137Z,4.03
2023-04-07T01:28:40.065Z,4.25
2023-04-07T01:31:11.076Z,1.70
2023-04-07T01:33:40.615Z,4.88
2023-04-07T01:36:09.964Z,3.47
2023-04-07T01:38:39.399Z,5.60
2023-04-07T01:41:08.913Z,2.10
2023-04-07T01:43:38.169Z,5.97
2023-04-07T01:46:05.842Z,4.38
2023-04-07T01:48:36.448Z,3.33
2023-04-07T01:51:06.490Z,5.65
2023-04-07T01:53:38.204Z,2.20
2023-04-07T01:56:06.096Z,2.85
2023-04-07T01:58:35.692Z,2.65
2023-04-07T02:01:05.325Z,6.53
2023-04-07T02:07:49.008Z,4.22
2023-04-07T02:10:20.716Z,5.18
2023-04-07T02:12:49.507Z,3.45
2023-04-07T02:15:20.080Z,4.18
2023-04-07T02:17:52.326Z,3.42
2023-04-07T02:20:21.288Z,3.75
2023-04-07T02:22:50.479Z,4.43
2023-04-07T02:25:30.176Z,2.10
2023-04-07T02:27:59.324Z,1.73
2023-04-07T02:30:27.328Z,1.92
2023-04-07T02:32:58.913Z,3.70
2023-04-07T02:35:26.568Z,1.88
2023-04-07T02:37:54.320Z,2.65
2023-04-07T02:40:21.858Z,2.78
2023-04-07T02:42:49.333Z,5.13
2023-04-07T02:45:16.886Z,5.75
2023-04-07T02:47:44.374Z,3.92
2023-04-07T02:50:12.040Z,4.35
2023-04-07T02:52:39.619Z,4.57
2023-04-07T02:55:12.493Z,5.35
2023-04-07T02:57:40.121Z,3.92
2023-04-07T03:00:15.201Z,3.75
2023-04-07T03:03:03.112Z,2.70
2023-04-07T03:05:34.654Z,6.03
2023-04-07T03:08:03.325Z,3.45
2023-04-07T03:10:30.804Z,4.30
2023-04-07T03:12:58.493Z,5.35
2023-04-07T03:15:26.365Z,3.35
2023-04-07T03:17:53.892Z,4.78
2023-04-07T03:20:21.572Z,6.88
2023-04-07T03:22:49.091Z,3.20
2023-04-07T03:27:51.886Z,4.15
2023-04-07T03:30:20.221Z,2.53
2023-04-07T03:32:47.805Z,4.55
2023-04-07T03:35:15.576Z,9.48
2023-04-07T03:37:44.969Z,4.95
2023-04-07T03:40:16.651Z,8.15
2023-04-07T03:42:47.201Z,3.88
2023-04-07T03:45:17.726Z,5.15
2023-04-07T03:47:50.277Z,6.18
2023-04-07T03:50:18.470Z,2.13
2023-04-07T03:53:00.917Z,3.40
2023-04-07T03:55:31.467Z,2.53
2023-04-07T03:58:05.532Z,2.70
2023-04-07T04:00:35.941Z,4.43
2023-04-07T04:03:11.985Z,5.78
2023-04-07T04:06:00.622Z,7.05
2023-04-07T04:08:31.435Z,6.60
2023-04-07T04:10:59.039Z,4.03
2023-04-07T04:13:32.553Z,3.90
2023-04-07T04:16:05.272Z,3.17
2023-04-07T04:18:33.607Z,2.50
2023-04-07T04:21:01.765Z,5.55
2023-04-07T04:23:29.856Z,3.47
2023-04-07T04:26:00.476Z,4.60
2023-04-07T04:28:29.087Z,2.90
2023-04-07T04:30:56.851Z,2.55
2023-04-07T04:33:24.858Z,3.20
2023-04-07T04:35:55.684Z,7.57
2023-04-07T04:38:24.780Z,6.75
2023-04-07T04:40:57.616Z,3.47
2023-04-07T04:43:29.142Z,3.60
2023-04-07T04:45:57.312Z,3.78
2023-04-07T04:48:27.599Z,7.35
2023-04-07T04:50:55.142Z,3.85
2023-04-07T04:53:22.976Z,3.70
2023-04-07T04:55:58.305Z,3.75
2023-04-07T04:58:36.394Z,2.63
2023-04-07T05:01:04.096Z,5.50
2023-04-07T05:03:38.260Z,3.22
2023-04-07T05:06:13.672Z,3.40
2023-04-07T05:08:43.512Z,3.65
2023-04-07T05:11:13.201Z,2.47
2023-04-07T05:13:42.902Z,3.58
2023-04-07T05:16:12.000Z,3.90
2023-04-07T05:18:39.669Z,5.13
2023-04-07T05:21:07.170Z,4.10
2023-04-07T05:23:36.747Z,5.03
2023-04-07T05:26:06.585Z,5.63
2023-04-07T05:28:34.210Z,6.28
2023-04-07T05:31:07.699Z,6.15
2023-04-07T05:33:36.519Z,6.28
2023-04-07T05:36:04.360Z,7.88
2023-04-07T05:38:33.235Z,5.28
2023-04-07T05:41:08.928Z,5.57
2023-04-07T05:43:37.431Z,4.70
2023-04-07T05:46:06.163Z,5.00
2023-04-07T05:48:38.010Z,3.67
2023-04-07T05:51:05.606Z,7.03
2023-04-07T05:53:33.093Z,5.63
2023-04-07T05:56:00.756Z,6.22
2023-04-07T05:58:54.294Z,4.47
2023-04-07T06:01:21.959Z,4.53
2023-04-07T06:03:51.372Z,3.10
2023-04-07T06:06:24.955Z,5.35
2023-04-07T06:08:52.781Z,4.72
2023-04-07T06:11:20.929Z,4.20
2023-04-07T06:13:48.728Z,4.32
2023-04-07T06:16:17.471Z,5.63
2023-04-07T06:18:46.479Z,3.88
2023-04-07T06:21:14.005Z,1.95
2023-04-07T06:23:41.455Z,3.38
2023-04-07T06:26:13.543Z,4.40
2023-04-07T06:28:41.382Z,4.03
2023-04-07T06:31:09.431Z,4.68
2023-04-07T06:33:38.044Z,3.00
2023-04-07T06:36:05.624Z,2.35
2023-04-07T06:38:33.293Z,2.50
2023-04-07T06:41:01.069Z,5.80
2023-04-07T06:43:28.864Z,3.45
2023-04-07T06:48:29.362Z,8.13
2023-04-07T06:50:56.899Z,4.55
2023-04-07T06:53:24.317Z,4.43
2023-04-07T06:55:51.706Z,5.35
2023-04-07T06:58:19.214Z,4.28
2023-04-07T07:00:46.628Z,6.00
2023-04-07T07:03:14.280Z,4.35
2023-04-07T07:05:41.881Z,3.83
2023-04-07T07:08:09.276Z,3.60
2023-04-07T07:10:36.727Z,3.15
2023-04-07T07:13:04.209Z,4.15
2023-04-07T07:15:31.729Z,5.47
2023-04-07T07:17:59.325Z,4.18
2023-04-07T07:20:26.882Z,4.22
2023-04-07T07:22:54.480Z,3.35
2023-04-07T07:25:22.086Z,3.22
2023-04-07T07:27:53.592Z,2.83
2023-04-07T07:30:22.722Z,3.13
2023-04-07T07:32:51.558Z,3.65
2023-04-07T07:35:20.259Z,6.38
2023-04-07T07:37:47.993Z,4.40
2023-04-07T07:40:15.861Z,3.15
2023-04-07T07:42:43.561Z,3.38
2023-04-07T07:45:12.395Z,2.53
2023-04-07T07:47:40.890Z,3.50
2023-04-07T07:50:08.634Z,9.13
2023-04-07T07:52:36.144Z,4.75
2023-04-07T07:55:03.974Z,4.28
2023-04-07T07:57:32.228Z,4.13
2023-04-07T07:59:59.736Z,6.57
2023-04-07T08:02:31.681Z,3.70
2023-04-07T08:04:59.293Z,4.05
2023-04-07T08:07:27.721Z,2.95
2023-04-07T08:09:55.162Z,3.20
2023-04-07T08:12:22.881Z,2.42
2023-04-07T08:14:50.913Z,2.83
2023-04-07T08:17:18.520Z,5.32
2023-04-07T08:19:46.870Z,3.83
2023-04-07T08:22:14.399Z,2.97
2023-04-07T08:24:42.299Z,6.75
2023-04-07T08:27:09.780Z,4.70
2023-04-07T08:29:37.227Z,5.70
2023-04-07T08:32:04.808Z,5.28
2023-04-07T08:34:32.631Z,3.28
2023-04-07T08:37:00.156Z,5.70
2023-04-07T08:39:28.527Z,3.97
2023-04-07T08:41:57.406Z,3.38
2023-04-07T08:44:27.567Z,2.50
2023-04-07T08:46:57.132Z,5.30
2023-04-07T08:49:27.936Z,4.10
2023-04-07T08:51:57.267Z,3.50
2023-04-07T08:54:24.833Z,3.78
2023-04-07T08:56:53.087Z,2.78
2023-04-07T08:59:26.936Z,3.25
2023-04-07T09:01:55.740Z,3.28
2023-04-07T09:04:24.972Z,5.40
2023-04-07T09:06:52.474Z,5.15
2023-04-07T09:09:19.920Z,4.15
2023-04-07T09:11:49.106Z,5.18
2023-04-07T09:14:16.793Z,4.93
2023-04-07T09:16:44.533Z,3.60
2023-04-07T09:19:12.013Z,6.53
2023-04-07T09:21:50.650Z,2.78
2023-04-07T09:24:26.474Z,3.70
2023-04-07T09:27:20.441Z,3.60
2023-04-07T09:29:48.512Z,6.70
2023-04-07T09:32:41.848Z,2.53
2023-04-07T09:35:12.369Z,5.43
2023-04-07T09:37:39.975Z,4.00
2023-04-07T09:40:08.192Z,4.07
2023-04-07T09:42:38.211Z,4.38
2023-04-07T09:45:06.129Z,3.25
2023-04-07T09:47:33.645Z,2.38
2023-04-07T09:50:07.135Z,4.43
2023-04-07T09:52:54.200Z,2.67
2023-04-07T09:55:23.596Z,5.05
2023-04-07T09:57:51.996Z,2.67
2023-04-07T10:00:19.683Z,5.25
2023-04-07T10:02:48.345Z,5.05
2023-04-07T10:05:15.997Z,3.15
2023-04-07T10:07:43.978Z,3.97
2023-04-07T10:10:11.746Z,3.92
2023-04-07T10:12:41.729Z,3.17
2023-04-07T10:15:12.916Z,3.95
2023-04-07T10:17:41.864Z,5.45
2023-04-07T10:20:11.456Z,2.70
2023-04-07T10:22:42.192Z,2.80
2023-04-07T10:25:11.916Z,2.55
2023-04-07T10:27:54.211Z,4.50
2023-04-07T10:30:27.369Z,5.78
2023-04-07T10:32:55.726Z,2.40
2023-04-07T10:35:24.019Z,3.28
2023-04-07T10:38:16.940Z,3.35
2023-04-07T10:40:45.122Z,2.55
2023-04-07T10:43:12.772Z,6.05
2023-04-07T10:45:49.355Z,5.30
2023-04-07T10:48:18.639Z,4.93
2023-04-07T10:50:47.188Z,6.07
2023-04-07T10:53:17.854Z,4.75
2023-04-07T10:55:55.159Z,4.07
2023-04-07T10:58:33.039Z,4.50
2023-04-07T11:01:00.883Z,3.08
2023-04-07T11:03:30.241Z,3.25
2023-04-07T11:06:11.687Z,4.03
2023-04-07T11:08:46.226Z,3.55
2023-04-07T11:11:17.819Z,3.25
2023-04-07T11:13:47.768Z,3.70
2023-04-07T11:16:17.705Z,3.20
2023-04-07T11:18:48.413Z,4.55
2023-04-07T11:21:20.177Z,4.35
2023-04-07T11:23:48.611Z,5.18
2023-04-07T11:26:16.750Z,4.32
2023-04-07T11:28:50.184Z,5.90
2023-04-07T11:31:29.056Z,4.38
2023-04-07T11:33:59.503Z,3.95
2023-04-07T11:36:37.165Z,3.97
2023-04-07T11:39:04.796Z,5.22
2023-04-07T11:41:33.875Z,5.53
2023-04-07T11:44:12.063Z,4.07
2023-04-07T11:46:59.226Z,4.47
2023-04-07T11:49:29.105Z,6.85
2023-04-07T11:52:05.983Z,5.45
2023-04-07T11:54:50.839Z,4.45
2023-04-07T11:57:26.731Z,3.70
2023-04-07T12:00:08.310Z,5.20
2023-04-07T12:02:36.313Z,5.05
2023-04-07T12:05:07.510Z,4.20
2023-04-07T12:07:35.021Z,5.32
2023-04-07T12:10:27.630Z,6.28
2023-04-07T12:12:55.566Z,5.82
2023-04-07T12:15:24.487Z,2.95
2023-04-07T12:17:52.096Z,4.60
2023-04-07T12:20:19.659Z,6.88
2023-04-07T12:22:47.670Z,7.30
2023-04-07T12:25:15.266Z,3.10
2023-04-07T12:27:44.052Z,3.70
2023-04-07T12:30:16.452Z,3.53
2023-04-07T12:32:44.038Z,5.28
2023-04-07T12:35:11.518Z,2.95
2023-04-07T12:37:39.048Z,3.22
2023-04-07T12:40:07.429Z,3.60
2023-04-07T12:42:35.006Z,3.88
2023-04-07T12:45:03.390Z,4.65
2023-04-07T12:47:32.396Z,4.38
2023-04-07T12:50:00.757Z,6.43
2023-04-07T12:52:28.556Z,8.32
2023-04-07T12:54:57.404Z,4.40
2023-04-07T12:57:25.425Z,6.32
2023-04-07T12:59:53.852Z,5.07
2023-04-07T13:02:21.989Z,5.47
2023-04-07T13:04:49.601Z,6.65
2023-04-07T13:07:17.207Z,2.97
2023-04-07T13:09:44.714Z,5.50
2023-04-07T13:12:12.797Z,2.90
2023-04-07T13:14:52.926Z,7.38
2023-04-07T13:17:25.166Z,3.72
2023-04-07T13:19:52.947Z,5.07
2023-04-07T13:22:22.274Z,5.85
2023-04-07T13:24:51.927Z,3.92
2023-04-07T13:27:19.545Z,5.38
2023-04-07T13:29:47.157Z,7.80
2023-04-07T13:32:16.269Z,4.00
2023-04-07T13:34:44.464Z,5.45
2023-04-07T13:37:12.093Z,6.60
2023-04-07T13:39:39.649Z,5.05
2023-04-07T13:42:07.369Z,7.25
2023-04-07T13:44:37.313Z,8.00
2023-04-07T13:47:57.737Z,10.40
2023-04-07T13:50:41.306Z,9.25
2023-04-07T13:53:09.010Z,4.88
2023-04-07T13:55:37.065Z,3.13
2023-04-07T13:58:04.577Z,5.28
2023-04-07T14:00:32.356Z,4.10
2023-04-07T14:03:00.112Z,7.43
2023-04-07T14:05:30.948Z,4.68
2023-04-07T14:08:00.590Z,6.85
2023-04-07T14:10:28.261Z,6.18
2023-04-07T14:12:58.343Z,8.55
2023-04-07T14:15:26.625Z,5.03
2023-04-07T14:17:54.238Z,4.90
2023-04-07T14:20:21.829Z,4.68
2023-04-07T14:22:49.440Z,4.03
2023-04-07T14:25:17.400Z,8.32
2023-04-07T14:27:45.014Z,7.60
2023-04-07T14:30:14.706Z,5.85
2023-04-07T14:32:42.272Z,6.47
2023-04-07T14:35:09.994Z,4.47
2023-04-07T14:37:37.478Z,4.70
2023-04-07T14:40:05.858Z,4.10
2023-04-07T14:42:33.784Z,3.92
2023-04-07T14:45:02.104Z,3.83
2023-04-07T14:47:30.867Z,6.72
2023-04-07T14:49:58.396Z,4.65
2023-04-07T14:52:26.284Z,10.02
2023-04-07T14:54:53.899Z,5.22
2023-04-07T14:57:22.477Z,3.85
2023-04-07T14:59:50.078Z,4.85
2023-04-07T15:02:17.666Z,9.80
2023-04-07T15:04:45.359Z,4.70
2023-04-07T15:07:12.979Z,6.30
2023-04-07T15:09:40.742Z,6.82
2023-04-07T15:12:08.290Z,4.45
2023-04-07T15:14:35.978Z,13.00
2023-04-07T15:17:03.609Z,5.45
2023-04-07T15:19:31.175Z,6.05
2023-04-07T15:21:58.665Z,6.13
2023-04-07T15:24:26.237Z,6.32
2023-04-07T15:26:54.007Z,5.57
2023-04-07T15:29:21.638Z,4.25
2023-04-07T15:31:49.272Z,4.38
2023-04-07T15:34:16.764Z,6.03
2023-04-07T15:36:44.199Z,6.63
2023-04-07T15:39:11.780Z,5.40
2023-04-07T15:41:39.319Z,5.28
2023-04-07T15:44:06.986Z,4.55
2023-04-07T15:46:34.556Z,4.70
2023-04-07T15:49:02.168Z,8.98
2023-04-07T15:51:30.160Z,6.85
2023-04-07T15:53:57.712Z,6.97
2023-04-07T15:56:25.376Z,7.30
2023-04-07T15:58:52.941Z,7.03
2023-04-07T16:01:20.801Z,4.93
2023-04-07T16:03:48.789Z,6.32
2023-04-07T16:06:16.891Z,7.18
2023-04-07T16:08:45.087Z,7.50
2023-04-07T16:11:12.630Z,5.72
2023-04-07T16:13:40.201Z,6.30
2023-04-07T16:16:08.432Z,6.10
2023-04-07T16:18:36.038Z,7.57
2023-04-07T16:21:07.918Z,6.97
2023-04-07T16:23:35.625Z,5.55
2023-04-07T16:26:03.471Z,6.63
2023-04-07T16:28:33.243Z,5.68
2023-04-07T16:31:02.870Z,9.25
2023-04-07T16:36:29.295Z,5.82
2023-04-07T16:38:57.929Z,6.38
2023-04-07T16:41:25.456Z,6.22
2023-04-07T16:43:53.038Z,6.70
2023-04-07T16:46:20.697Z,7.00
2023-04-07T16:48:48.579Z,6.72
2023-04-07T16:51:19.761Z,7.53
2023-04-07T16:53:47.927Z,4.95
2023-04-07T16:56:20.229Z,8.23
2023-04-07T16:58:51.585Z,8.05
2023-04-07T17:01:19.660Z,4.32
2023-04-07T17:03:51.998Z,9.77
2023-04-07T17:06:19.780Z,7.03
2023-04-07T17:08:49.171Z,8.73
2023-04-07T17:11:16.863Z,6.68
2023-04-07T17:13:44.400Z,9.25
2023-04-07T17:16:15.089Z,8.43
2023-04-07T17:18:42.910Z,4.75
2023-04-07T17:21:10.446Z,3.58
2023-04-07T17:23:38.701Z,7.72
2023-04-07T17:26:06.344Z,5.57
2023-04-07T17:28:33.778Z,5.50
2023-04-07T17:31:04.343Z,5.03
2023-04-07T17:33:32.165Z,4.93
2023-04-07T17:36:03.368Z,6.78
2023-04-07T17:38:31.328Z,7.15
2023-04-07T17:41:00.041Z,6.78
2023-04-07T17:43:28.892Z,5.63
2023-04-07T17:45:56.965Z,6.50
2023-04-07T17:48:24.741Z,6.45
2023-04-07T17:50:52.274Z,6.78
2023-04-07T17:53:20.164Z,9.32
2023-04-07T17:55:48.121Z,4.75
2023-04-07T17:58:15.929Z,8.10
2023-04-07T18:00:43.394Z,5.20
2023-04-07T18:03:12.041Z,6.90
2023-04-07T18:05:46.973Z,9.18
2023-04-07T18:08:15.163Z,7.20
2023-04-07T18:10:42.929Z,4.13
2023-04-07T18:13:10.566Z,4.63
2023-04-07T18:15:38.190Z,6.65
2023-04-07T18:18:06.114Z,3.40
2023-04-07T18:20:33.942Z,7.97
2023-04-07T18:23:04.361Z,6.00
2023-04-07T18:25:31.969Z,7.50
2023-04-07T18:27:59.418Z,9.07
2023-04-07T18:30:27.491Z,14.18
2023-04-07T18:32:55.023Z,11.20
2023-04-07T18:35:22.645Z,10.88
2023-04-07T18:37:53.947Z,11.85
2023-04-07T18:40:21.472Z,10.15
2023-04-07T18:42:48.992Z,9.82
2023-04-07T18:45:16.717Z,11.32
2023-04-07T18:47:44.509Z,11.77
2023-04-07T18:50:12.308Z,17.80
2023-04-07T18:52:39.851Z,18.17
2023-04-07T18:55:09.083Z,16.35
2023-04-07T18:57:36.657Z,11.82
2023-04-07T19:00:04.455Z,16.88
2023-04-07T19:02:32.098Z,16.25
2023-04-07T19:04:59.748Z,18.25
2023-04-07T19:07:27.232Z,23.10
2023-04-07T19:09:54.853Z,19.10
2023-04-07T19:12:22.575Z,17.92
2023-04-07T19:14:50.077Z,14.57
2023-04-07T19:17:17.847Z,20.67
2023-04-07T19:19:45.293Z,18.13
2023-04-07T19:22:12.877Z,17.48
2023-04-07T19:24:41.030Z,23.17
2023-04-07T19:27:09.230Z,19.70
2023-04-07T19:29:37.197Z,20.25
2023-04-07T19:32:04.855Z,17.17
2023-04-07T19:34:32.825Z,22.58
2023-04-07T19:37:00.284Z,18.75
2023-04-07T19:39:27.781Z,20.80
2023-04-07T19:41:56.386Z,22.25
2023-04-07T19:44:23.968Z,22.60
2023-04-07T19:46:55.160Z,21.33
2023-04-07T19:49:22.907Z,24.35
2023-04-07T19:51:54.374Z,18.50
2023-04-07T19:54:22.509Z,25.38
2023-04-07T19:56:50.093Z,29.45
2023-04-07T19:59:17.503Z,21.83
2023-04-07T20:01:45.082Z,24.55
2023-04-07T20:04:12.777Z,31.55
2023-04-07T20:06:40.838Z,27.20
2023-04-07T20:09:08.516Z,25.00
2023-04-07T20:11:35.957Z,30.77
2023-04-07T20:14:03.451Z,26.20
2023-04-07T20:16:34.034Z,29.48
2023-04-07T20:19:01.732Z,28.80
2023-04-07T20:21:29.438Z,23.77
2023-04-07T20:23:56.960Z,26.40
2023-04-07T20:26:24.819Z,32.17
2023-04-07T20:28:52.502Z,25.55
2023-04-07T20:31:20.058Z,24.40
2023-04-07T20:33:47.607Z,28.63
2023-04-07T20:36:15.224Z,31.90
2023-04-07T20:38:44.194Z,29.35
2023-04-07T20:41:14.526Z,34.05
2023-04-07T20:43:42.066Z,36.75
2023-04-07T20:46:09.868Z,33.97
2023-04-07T20:48:38.464Z,27.67
2023-04-07T20:51:06.009Z,38.65
2023-04-07T20:53:33.579Z,32.58
2023-04-07T20:56:03.143Z,33.92
2023-04-07T20:58:30.867Z,32.70
2023-04-07T21:01:00.179Z,32.10
2023-04-07T21:03:28.444Z,41.10
2023-04-07T21:05:57.321Z,30.55
2023-04-07T21:08:24.795Z,39.75
2023-04-07T21:10:53.553Z,38.15
2023-04-07T21:13:22.726Z,41.88
2023-04-07T21:15:50.339Z,33.83
2023-04-07T21:18:19.178Z,36.42
2023-04-07T21:20:47.523Z,38.17
2023-04-07T21:23:15.179Z,40.85
2023-04-07T21:25:42.644Z,34.22
2023-04-07T21:28:10.241Z,38.67
2023-04-07T21:30:42.195Z,37.33
2023-04-07T21:33:10.124Z,41.25
2023-04-07T21:35:38.124Z,38.78
2023-04-07T21:38:05.990Z,37.42
2023-04-07T21:40:33.443Z,39.80
2023-04-07T21:43:01.034Z,30.95
2023-04-07T21:45:29.856Z,51.80
2023-04-07T21:47:57.605Z,44.05
2023-04-07T21:50:25.788Z,38.22
2023-04-07T21:52:53.891Z,36.60
2023-04-07T21:55:21.734Z,30.17
2023-04-07T21:57:50.403Z,35.33
2023-04-07T22:00:18.119Z,33.53
2023-04-07T22:02:45.865Z,33.75
2023-04-07T22:05:14.002Z,41.72
2023-04-07T22:07:41.475Z,32.78
2023-04-07T22:10:09.537Z,32.15
2023-04-07T22:12:37.125Z,30.08
2023-04-07T22:15:05.309Z,27.13
2023-04-07T22:17:32.908Z,29.48
2023-04-07T22:20:00.593Z,27.40
2023-04-07T22:22:28.115Z,26.60
2023-04-07T22:24:55.752Z,35.05
2023-04-07T22:27:23.410Z,29.55
2023-04-07T22:29:50.840Z,37.40
2023-04-07T22:32:18.388Z,25.25
2023-04-07T22:34:46.866Z,29.35
2023-04-07T22:37:14.394Z,30.30
2023-04-07T22:39:42.079Z,29.75
2023-04-07T22:42:09.524Z,30.45
2023-04-07T22:44:37.082Z,23.45
2023-04-07T22:47:04.807Z,26.75
2023-04-07T22:49:32.587Z,27.77
2023-04-07T22:52:00.240Z,25.23
2023-04-07T22:54:27.727Z,20.83
2023-04-07T22:56:55.192Z,27.05
2023-04-07T22:59:22.675Z,26.35
2023-04-07T23:01:50.251Z,23.27
2023-04-07T23:04:17.756Z,25.48
2023-04-07T23:06:45.294Z,28.85
2023-04-07T23:09:12.839Z,24.00
2023-04-07T23:11:40.354Z,31.63
2023-04-07T23:14:08.276Z,20.50
2023-04-07T23:16:36.228Z,24.17
2023-04-07T23:19:03.831Z,23.90
2023-04-07T23:21:32.457Z,21.25
2023-04-07T23:24:00.533Z,20.75
2023-04-07T23:26:28.231Z,22.80
2023-04-07T23:28:55.662Z,20.63
2023-04-07T23:31:23.341Z,13.25
2023-04-07T23:33:50.946Z,20.90
2023-04-07T23:36:18.483Z,16.63
2023-04-07T23:38:46.120Z,18.27
2023-04-07T23:41:13.630Z,13.80
2023-04-07T23:43:41.394Z,12.80
2023-04-07T23:46:08.899Z,19.30
2023-04-07T23:48:36.669Z,15.20
2023-04-07T23:51:04.279Z,11.73
2023-04-07T23:53:31.754Z,13.05
2023-04-07T23:55:59.373Z,13.55
2023-04-07T23:58:26.836Z,11.85
